Time;durP1;ratioP1;P1;durP2;ratioP2;P2;SDS_P1;SDS_P2;PMS_P1;PMS_P2;Temp;Humidity;BMP_temperature;BMP_pressure;BME280_temperature;BME280_humidity;BME280_pressure;Samples;Min_cycle;Max_cycle;Signal;HPM_P1;HPM_P2
2022/11/18 00:02:56;;;;;;;9.07;0.60;;;11.90;99.90;;;;;;6226043;28;20054;-87
2022/11/18 00:05:58;;;;;;;7.35;0.80;;;12.00;99.90;;;;;;6239930;28;20117;-85
2022/11/18 00:09:00;;;;;;;6.35;0.95;;;12.00;99.90;;;;;;6234191;28;20050;-85
2022/11/18 00:15:27;;;;;;;4.75;0.93;;;12.00;99.90;;;;;;6168078;28;20049;-86
2022/11/18 00:18:30;;;;;;;5.50;0.60;;;12.10;99.90;;;;;;6222631;28;20415;-85
2022/11/18 00:21:32;;;;;;;3.00;0.55;;;12.10;99.90;;;;;;6241462;28;20042;-87
2022/11/18 00:24:34;;;;;;;7.15;0.63;;;12.10;99.90;;;;;;6222360;28;20100;-85
2022/11/18 00:27:36;;;;;;;3.17;0.50;;;12.20;99.90;;;;;;6222454;28;20053;-85
2022/11/18 00:30:37;;;;;;;8.77;1.58;;;12.20;99.90;;;;;;6223416;28;20054;-85
2022/11/18 00:33:41;;;;;;;3.75;0.68;;;12.30;99.90;;;;;;6221680;28;20069;-85
2022/11/18 00:36:44;;;;;;;5.30;0.70;;;12.40;99.90;;;;;;6224009;28;20045;-84
2022/11/18 00:39:45;;;;;;;2.95;0.82;;;12.50;99.90;;;;;;6220460;28;20496;-86
2022/11/18 00:42:55;;;;;;;4.90;0.65;;;12.50;99.90;;;;;;6224418;28;20054;-86
2022/11/18 00:45:57;;;;;;;5.85;0.70;;;12.50;99.90;;;;;;6222932;28;20049;-87
2022/11/18 00:49:00;;;;;;;3.40;0.85;;;12.60;99.90;;;;;;6222051;28;20084;-88
2022/11/18 00:52:02;;;;;;;4.40;0.50;;;12.70;99.90;;;;;;6222160;28;20038;-86
2022/11/18 00:55:04;;;;;;;10.88;1.02;;;12.70;99.90;;;;;;6222476;28;20053;-87
2022/11/18 00:58:06;;;;;;;8.45;0.70;;;12.70;99.90;;;;;;6221034;28;20527;-87
2022/11/18 01:01:08;;;;;;;5.55;0.38;;;12.70;99.90;;;;;;6221859;28;20132;-87
2022/11/18 01:04:11;;;;;;;1.48;0.30;;;12.60;99.90;;;;;;6221993;28;20041;-86
2022/11/18 01:07:13;;;;;;;3.17;0.32;;;12.50;99.90;;;;;;6221882;28;20054;-86
2022/11/18 01:10:15;;;;;;;3.78;0.55;;;12.50;99.90;;;;;;6221529;28;20046;-86
2022/11/18 01:13:21;;;;;;;2.17;0.68;;;12.40;99.90;;;;;;6221628;28;20510;-86
2022/11/18 01:16:25;;;;;;;4.10;1.42;;;12.20;99.90;;;;;;6221888;28;20050;-86
2022/11/18 01:19:28;;;;;;;3.30;0.50;;;12.20;99.90;;;;;;6221361;28;20046;-86
2022/11/18 01:22:30;;;;;;;4.68;0.75;;;12.20;99.90;;;;;;6220412;28;20052;-87
2022/11/18 01:25:32;;;;;;;11.98;0.63;;;12.10;99.90;;;;;;6218014;28;20060;-87
2022/11/18 01:28:34;;;;;;;2.25;0.50;;;12.20;99.90;;;;;;6220632;28;20061;-85
2022/11/18 01:31:37;;;;;;;2.38;0.80;;;12.20;99.90;;;;;;6221319;28;20075;-84
2022/11/18 01:34:40;;;;;;;6.63;0.60;;;12.20;99.90;;;;;;6222465;28;20061;-86
2022/11/18 01:37:42;;;;;;;1.98;0.45;;;12.20;99.90;;;;;;6220723;28;20596;-87
2022/11/18 01:40:44;;;;;;;2.22;0.20;;;12.10;99.90;;;;;;6218166;28;20050;-86
2022/11/18 01:43:50;;;;;;;4.15;0.50;;;12.10;99.90;;;;;;6221013;28;20073;-86
2022/11/18 01:46:52;;;;;;;1.23;0.35;;;12.20;99.90;;;;;;6221727;28;20466;-85
2022/11/18 01:49:56;;;;;;;6.78;0.43;;;12.10;99.90;;;;;;6236142;28;20030;-85
2022/11/18 01:53:01;;;;;;;5.75;0.73;;;12.10;99.90;;;;;;6252033;28;20034;-84
2022/11/18 01:56:08;;;;;;;6.10;0.73;;;12.10;99.90;;;;;;6227288;28;20056;-86
2022/11/18 01:59:15;;;;;;;3.10;0.50;;;12.00;99.90;;;;;;6220895;28;20491;-87
2022/11/18 02:02:17;;;;;;;4.50;0.52;;;11.90;99.90;;;;;;6221049;28;20712;-86
2022/11/18 02:59:09;;;;;;;5.40;0.82;;;11.70;99.90;;;;;;6248559;28;20107;-89
2022/11/18 03:02:16;;;;;;;5.60;0.60;;;11.60;99.90;;;;;;6251038;28;20049;-88
2022/11/18 03:05:24;;;;;;;2.97;0.68;;;11.50;99.90;;;;;;6235432;28;20048;-89
2022/11/18 03:08:32;;;;;;;3.85;0.63;;;11.50;99.90;;;;;;6233162;28;20338;-90
2022/11/18 03:11:44;;;;;;;4.13;0.60;;;11.40;99.90;;;;;;6250040;28;20053;-90
2022/11/18 03:14:55;;;;;;;3.08;0.60;;;11.40;99.90;;;;;;6250624;28;20088;-89
2022/11/18 03:18:07;;;;;;;1.27;0.47;;;11.30;99.90;;;;;;6229747;28;20054;-88
2022/11/18 03:21:15;;;;;;;1.10;0.63;;;11.30;99.90;;;;;;6225270;28;20125;-90
2022/11/18 03:24:22;;;;;;;1.35;0.35;;;11.30;99.90;;;;;;6220527;28;20423;-89
2022/11/18 03:27:30;;;;;;;4.97;0.55;;;11.30;99.90;;;;;;6225771;28;20105;-90
2022/11/18 03:30:35;;;;;;;8.57;0.73;;;11.30;99.90;;;;;;6225732;28;20073;-89
2022/11/18 03:33:42;;;;;;;4.45;0.60;;;11.20;99.90;;;;;;6208020;28;20050;-90
2022/11/18 03:36:49;;;;;;;0.73;0.50;;;11.20;99.90;;;;;;6201608;28;20054;-90
2022/11/18 03:39:56;;;;;;;7.10;0.65;;;11.30;99.90;;;;;;6200693;28;20683;-90
2022/11/18 03:43:02;;;;;;;0.57;0.30;;;11.30;99.90;;;;;;6201168;28;20065;-89
2022/11/18 03:46:10;;;;;;;5.05;0.60;;;11.30;99.90;;;;;;6200612;28;20120;-90
2022/11/18 03:49:15;;;;;;;4.05;0.60;;;11.30;99.90;;;;;;6199931;28;20129;-89
2022/11/18 03:52:21;;;;;;;6.05;0.52;;;11.30;99.90;;;;;;6201206;28;20050;-89
2022/11/18 03:55:27;;;;;;;0.85;0.50;;;11.30;99.90;;;;;;6201423;28;20050;-88
2022/11/18 03:58:33;;;;;;;0.50;0.40;;;11.30;99.90;;;;;;6200121;28;20141;-89
2022/11/18 04:01:42;;;;;;;0.25;0.17;;;11.20;99.90;;;;;;6201051;28;20582;-89
2022/11/18 04:04:46;;;;;;;3.20;0.85;;;11.30;99.90;;;;;;6204264;28;20053;-88
2022/11/18 04:07:56;;;;;;;2.45;0.20;;;11.20;99.90;;;;;;6203999;28;20415;-89
2022/11/18 04:11:01;;;;;;;1.50;0.50;;;11.30;99.90;;;;;;6204384;28;20144;-89
2022/11/18 04:14:06;;;;;;;2.25;0.40;;;11.30;99.90;;;;;;6200795;28;20057;-89
2022/11/18 04:17:11;;;;;;;0.73;0.30;;;11.30;99.90;;;;;;6200550;28;20054;-89
2022/11/18 04:20:16;;;;;;;3.28;0.30;;;11.20;99.90;;;;;;6200133;28;20511;-89
2022/11/18 04:23:18;;;;;;;4.53;0.50;;;11.20;99.90;;;;;;6200007;28;20527;-89
2022/11/18 04:26:20;;;;;;;4.68;0.55;;;11.20;99.90;;;;;;6198915;28;20193;-89
2022/11/18 04:29:22;;;;;;;0.93;0.30;;;11.20;99.90;;;;;;6199231;28;20122;-89
2022/11/18 04:32:25;;;;;;;0.85;0.45;;;11.20;99.90;;;;;;6199636;28;20078;-89
2022/11/18 04:35:27;;;;;;;2.08;0.52;;;11.30;99.90;;;;;;6199508;28;20542;-89
2022/11/18 04:38:29;;;;;;;4.78;0.30;;;11.30;99.90;;;;;;6199836;28;20397;-89
2022/11/18 04:44:50;;;;;;;3.40;0.50;;;11.20;99.90;;;;;;6198762;28;20066;-89
2022/11/18 04:47:53;;;;;;;0.73;0.25;;;11.10;99.90;;;;;;6198460;28;20062;-89
2022/11/18 04:50:57;;;;;;;1.52;0.50;;;11.00;99.90;;;;;;6198982;28;20050;-89
2022/11/18 04:53:59;;;;;;;3.35;0.28;;;11.00;99.90;;;;;;6199435;28;20046;-90
2022/11/18 04:57:00;;;;;;;0.50;0.38;;;11.00;99.90;;;;;;6198174;28;20065;-89
2022/11/18 05:00:03;;;;;;;1.65;0.95;;;10.90;99.90;;;;;;6198065;28;20050;-89
2022/11/18 05:03:06;;;;;;;5.38;0.43;;;10.90;99.90;;;;;;6198667;28;20492;-90
2022/11/18 05:06:08;;;;;;;2.33;0.30;;;10.80;99.90;;;;;;6198210;28;20149;-89
2022/11/18 05:09:10;;;;;;;1.60;0.35;;;10.80;99.90;;;;;;6197610;28;20068;-90
2022/11/18 05:15:33;;;;;;;0.40;0.13;;;10.70;99.90;;;;;;6198333;28;20082;-89
2022/11/18 05:18:36;;;;;;;1.52;0.47;;;10.70;99.90;;;;;;6198337;28;20169;-89
2022/11/18 05:21:38;;;;;;;0.55;0.20;;;10.50;99.90;;;;;;6198871;28;20121;-89
2022/11/18 05:24:40;;;;;;;0.45;0.15;;;10.50;99.90;;;;;;6203195;28;20440;-89
2022/11/18 05:27:41;;;;;;;0.22;0.10;;;10.50;99.90;;;;;;6216664;28;20050;-86
2022/11/18 05:30:43;;;;;;;0.00;0.00;;;10.50;99.90;;;;;;6223139;28;20054;-88
2022/11/18 05:33:46;;;;;;;1.15;0.32;;;10.50;99.90;;;;;;6222826;28;20077;-89
2022/11/18 05:36:48;;;;;;;0.20;0.10;;;10.40;99.90;;;;;;6222242;28;20215;-89
2022/11/18 05:39:50;;;;;;;3.22;0.28;;;10.50;99.90;;;;;;6221481;28;20207;-88
2022/11/18 05:46:11;;;;;;;0.65;0.30;;;10.40;99.90;;;;;;6223941;28;20046;-89
2022/11/18 05:49:14;;;;;;;4.07;0.30;;;10.40;99.90;;;;;;6221868;28;20052;-89
2022/11/18 05:52:16;;;;;;;3.33;0.60;;;10.30;99.90;;;;;;6225054;28;20056;-88
2022/11/18 05:55:20;;;;;;;0.20;0.15;;;10.20;99.90;;;;;;6227967;28;20050;-89
2022/11/18 05:58:22;;;;;;;0.47;0.32;;;10.30;99.90;;;;;;6226743;28;20046;-89
2022/11/18 06:01:27;;;;;;;1.70;0.13;;;10.30;99.90;;;;;;6226722;28;20495;-88
2022/11/18 06:04:34;;;;;;;3.05;0.50;;;10.30;99.90;;;;;;6230329;28;20054;-88
2022/11/18 06:07:39;;;;;;;7.00;0.40;;;10.30;99.90;;;;;;6228258;28;20045;-88
2022/11/18 06:10:43;;;;;;;1.55;0.45;;;10.30;99.90;;;;;;6227905;28;20056;-88
2022/11/18 06:13:49;;;;;;;3.03;0.50;;;10.30;99.90;;;;;;6226954;28;20046;-88
2022/11/18 06:16:55;;;;;;;2.63;1.15;;;10.30;99.90;;;;;;6227282;28;20503;-88
2022/11/18 06:19:59;;;;;;;0.25;0.05;;;10.30;99.90;;;;;;6228423;28;20045;-88
2022/11/18 06:23:01;;;;;;;0.65;0.28;;;10.20;99.90;;;;;;6227890;28;20049;-87
2022/11/18 06:26:03;;;;;;;1.15;0.35;;;10.20;99.90;;;;;;6220525;28;20523;-88
2022/11/18 06:29:06;;;;;;;2.28;0.35;;;10.20;99.90;;;;;;6229664;28;20054;-88
2022/11/18 06:32:08;;;;;;;1.50;0.38;;;10.20;99.90;;;;;;6227612;28;20133;-89
2022/11/18 06:35:11;;;;;;;3.10;0.40;;;10.20;99.90;;;;;;6226896;28;20076;-89
2022/11/18 06:38:13;;;;;;;1.02;0.50;;;10.20;99.90;;;;;;6226324;28;20050;-88
2022/11/18 06:41:15;;;;;;;0.65;0.20;;;10.20;99.90;;;;;;6225285;28;20046;-87
2022/11/18 06:44:17;;;;;;;4.95;0.60;;;10.30;99.90;;;;;;6225535;28;20074;-87
2022/11/18 06:47:19;;;;;;;3.42;0.60;;;10.20;99.90;;;;;;6225409;28;20053;-88
2022/11/18 06:50:22;;;;;;;5.07;0.63;;;10.10;99.90;;;;;;6225445;28;20069;-87
2022/11/18 06:53:24;;;;;;;1.40;0.50;;;10.20;99.90;;;;;;6225939;28;20132;-87
2022/11/18 06:56:26;;;;;;;12.20;1.20;;;10.20;99.90;;;;;;6225974;28;20046;-87
2022/11/18 06:59:27;;;;;;;4.88;0.50;;;10.30;99.90;;;;;;6225902;28;20133;-87
2022/11/18 07:02:29;;;;;;;1.17;0.15;;;10.30;99.90;;;;;;6225155;28;20046;-87
2022/11/18 07:05:33;;;;;;;3.83;0.63;;;10.30;99.90;;;;;;6224738;28;20057;-87
2022/11/18 07:08:35;;;;;;;0.80;0.38;;;10.30;99.90;;;;;;6226595;28;20203;-89
2022/11/18 07:11:40;;;;;;;4.38;0.52;;;10.30;99.90;;;;;;6225368;28;20046;-88
2022/11/18 07:14:41;;;;;;;3.03;0.50;;;10.30;99.90;;;;;;6227252;28;20057;-87
2022/11/18 07:17:43;;;;;;;1.20;0.38;;;10.30;99.90;;;;;;6226872;28;20517;-87
2022/11/18 07:20:46;;;;;;;6.65;0.45;;;10.30;99.90;;;;;;6225860;28;20129;-87
2022/11/18 07:23:48;;;;;;;1.52;0.45;;;10.30;99.90;;;;;;6225397;28;20132;-87
2022/11/18 07:26:52;;;;;;;0.75;0.20;;;10.40;99.90;;;;;;6216531;28;20587;-88
2022/11/18 07:29:54;;;;;;;1.17;0.57;;;10.50;99.90;;;;;;6200095;28;20692;-87
2022/11/18 07:32:56;;;;;;;2.60;0.50;;;10.50;99.90;;;;;;6200965;28;20401;-87
2022/11/18 07:36:37;;;;;;;8.00;0.70;;;10.50;99.90;;;;;;6195329;28;20099;-88
2022/11/18 07:40:02;;;;;;;4.00;0.52;;;10.50;99.90;;;;;;6203227;28;20046;-86
2022/11/18 07:43:04;;;;;;;4.00;1.08;;;10.50;99.90;;;;;;6164355;28;20068;-87
2022/11/18 07:46:10;;;;;;;1.10;0.60;;;10.60;99.90;;;;;;6215524;28;20607;-87
2022/11/18 07:52:32;;;;;;;4.22;1.40;;;10.70;99.90;;;;;;6163187;28;20125;-87
2022/11/18 07:55:34;;;;;;;1.10;0.57;;;10.70;99.90;;;;;;6181409;28;20046;-87
2022/11/18 07:58:36;;;;;;;3.88;0.60;;;10.70;99.90;;;;;;6201373;28;20050;-87
2022/11/18 08:01:38;;;;;;;2.90;0.45;;;10.60;99.90;;;;;;6200394;28;20188;-87
2022/11/18 08:04:40;;;;;;;4.88;0.80;;;10.70;99.90;;;;;;6200829;28;20042;-87
2022/11/18 08:07:43;;;;;;;2.42;0.77;;;10.70;99.90;;;;;;6198537;28;20061;-86
2022/11/18 08:10:45;;;;;;;1.10;0.45;;;10.80;99.90;;;;;;6200079;28;20133;-86
2022/11/18 08:13:56;;;;;;;7.78;1.35;;;10.80;99.90;;;;;;6199478;28;20128;-85
2022/11/18 08:16:58;;;;;;;1.95;0.70;;;10.80;99.90;;;;;;6198536;28;20272;-87
2022/11/18 08:20:00;;;;;;;2.15;0.77;;;10.90;99.90;;;;;;6215111;28;20072;-87
2022/11/18 08:23:03;;;;;;;4.18;0.80;;;10.90;99.90;;;;;;6223986;28;20096;-87
2022/11/18 08:26:07;;;;;;;5.85;1.60;;;11.00;99.90;;;;;;6222803;28;20133;-86
2022/11/18 08:29:09;;;;;;;7.05;1.50;;;11.00;99.90;;;;;;6202176;28;20190;-87
2022/11/18 08:32:11;;;;;;;5.80;1.10;;;11.00;99.90;;;;;;6198511;28;20046;-87
2022/11/18 08:35:13;;;;;;;6.05;1.27;;;11.10;99.90;;;;;;6200119;28;20402;-86
2022/11/18 08:38:16;;;;;;;2.53;0.90;;;11.10;99.90;;;;;;6198690;28;20053;-86
2022/11/18 08:41:21;;;;;;;4.13;1.60;;;11.20;99.90;;;;;;6198108;28;20133;-86
2022/11/18 08:44:22;;;;;;;7.65;1.95;;;11.30;99.90;;;;;;6199523;28;20085;-87
2022/11/18 08:47:24;;;;;;;3.92;1.50;;;11.30;99.90;;;;;;6206861;28;20076;-85
2022/11/18 08:50:29;;;;;;;7.53;2.55;;;11.30;99.90;;;;;;6218226;28;20038;-88
2022/11/18 08:53:32;;;;;;;6.88;2.08;;;11.30;99.90;;;;;;6223666;28;20140;-87
2022/11/18 08:56:34;;;;;;;4.82;2.20;;;11.30;99.90;;;;;;6222535;28;20115;-86
2022/11/18 08:59:36;;;;;;;4.93;2.45;;;11.30;99.90;;;;;;6223062;28;20054;-85
2022/11/18 09:02:41;;;;;;;6.57;2.45;;;11.30;99.90;;;;;;6223709;28;20100;-86
2022/11/18 09:05:42;;;;;;;9.43;2.70;;;11.40;99.90;;;;;;6222809;28;20060;-86
2022/11/18 09:08:46;;;;;;;7.70;3.20;;;11.40;99.90;;;;;;6222441;28;20041;-85
2022/11/18 09:11:48;;;;;;;11.43;3.40;;;11.40;99.90;;;;;;6223041;28;20068;-85
2022/11/18 09:14:50;;;;;;;7.50;2.17;;;11.40;99.90;;;;;;6223589;28;20065;-86
2022/11/18 09:17:51;;;;;;;8.05;2.50;;;11.40;99.90;;;;;;6213785;28;20145;-86
2022/11/18 09:20:55;;;;;;;6.38;2.33;;;11.40;99.90;;;;;;6220376;28;20115;-86
2022/11/18 09:24:05;;;;;;;6.20;1.83;;;11.50;99.90;;;;;;6219525;28;20061;-86
2022/11/18 09:27:08;;;;;;;7.05;2.42;;;11.50;99.90;;;;;;6222604;28;20049;-86
2022/11/18 09:30:11;;;;;;;3.40;1.77;;;11.50;99.90;;;;;;6200414;28;20042;-87
2022/11/18 09:33:15;;;;;;;9.80;3.03;;;11.60;99.90;;;;;;6198218;28;20132;-86
2022/11/18 09:36:19;;;;;;;12.75;2.55;;;11.70;99.90;;;;;;6198229;28;20051;-87
2022/11/18 09:39:24;;;;;;;4.78;1.88;;;11.80;99.90;;;;;;6174253;28;20064;-86
2022/11/18 09:42:46;;;;;;;5.63;1.90;;;11.80;99.90;;;;;;6173336;28;20047;-86
2022/11/18 09:45:55;;;;;;;8.63;2.65;;;11.90;99.90;;;;;;6174191;28;20563;-86
2022/11/18 09:49:14;;;;;;;9.40;3.45;;;12.00;99.90;;;;;;6228337;28;20088;-86
2022/11/18 09:52:19;;;;;;;4.70;2.30;;;12.00;99.90;;;;;;6269540;28;20049;-86
2022/11/18 09:55:22;;;;;;;5.60;2.53;;;11.80;99.90;;;;;;6261210;28;20105;-86
2022/11/18 09:58:32;;;;;;;8.35;2.13;;;11.70;99.90;;;;;;6248081;28;20052;-86
2022/11/18 10:01:36;;;;;;;7.07;2.17;;;11.70;99.90;;;;;;6247184;28;20042;-86
2022/11/18 10:04:38;;;;;;;3.72;1.10;;;11.70;99.90;;;;;;6247596;28;20049;-86
2022/11/18 10:07:48;;;;;;;6.20;2.22;;;11.80;99.90;;;;;;6247687;28;20049;-87
2022/11/18 10:11:03;;;;;;;7.07;1.98;;;11.80;99.90;;;;;;6249218;28;20049;-86
2022/11/18 10:14:23;;;;;;;10.35;2.92;;;11.90;99.90;;;;;;6250540;28;20168;-86
2022/11/18 10:17:40;;;;;;;7.75;2.30;;;12.00;99.90;;;;;;6245162;28;20041;-87
2022/11/18 10:20:54;;;;;;;5.55;2.47;;;12.30;99.90;;;;;;6244166;28;20049;-85
2022/11/18 10:24:02;;;;;;;13.27;3.22;;;12.50;99.90;;;;;;6245861;28;20179;-86
2022/11/18 10:27:10;;;;;;;11.10;2.95;;;12.60;99.90;;;;;;6246897;28;20089;-86
2022/11/18 10:30:14;;;;;;;6.25;2.45;;;12.60;99.90;;;;;;6230255;28;20096;-86
2022/11/18 10:33:34;;;;;;;7.00;3.25;;;12.70;99.90;;;;;;6208080;28;20026;-89
2022/11/18 10:36:36;;;;;;;8.30;3.17;;;12.60;99.90;;;;;;6221478;28;20050;-86
2022/11/18 10:39:50;;;;;;;7.45;2.60;;;12.70;99.90;;;;;;6204237;28;20054;-86
2022/11/18 10:42:59;;;;;;;11.90;3.47;;;12.70;99.90;;;;;;6205833;28;20093;-85
2022/11/18 10:46:17;;;;;;;7.13;3.53;;;12.60;99.90;;;;;;6203601;28;20130;-87
2022/11/18 10:49:33;;;;;;;7.65;2.50;;;12.60;99.90;;;;;;6231934;28;20155;-87
2022/11/18 10:52:52;;;;;;;12.20;4.05;;;12.70;99.90;;;;;;6232382;28;20049;-86
2022/11/18 10:56:18;;;;;;;12.38;3.38;;;12.60;99.90;;;;;;6226196;28;20057;-87
2022/11/18 10:59:51;;;;;;;6.28;2.78;;;12.80;99.90;;;;;;6225469;28;20054;-85
2022/11/18 11:02:55;;;;;;;11.15;3.20;;;12.90;99.90;;;;;;6219173;28;20508;-86
2022/11/18 11:06:36;;;;;;;10.18;2.40;;;13.00;99.90;;;;;;6226519;28;20531;-85
2022/11/18 11:09:38;;;;;;;9.52;3.33;;;13.00;99.90;;;;;;6205252;28;20530;-87
2022/11/18 11:13:00;;;;;;;3.85;2.03;;;13.00;99.90;;;;;;6229566;28;20547;-85
2022/11/18 11:16:12;;;;;;;7.72;2.53;;;13.10;99.90;;;;;;6287194;23;20046;-85
2022/11/18 11:20:28;;;;;;;8.75;2.40;;;13.10;99.90;;;;;;6204669;28;20157;-85
2022/11/18 11:23:32;;;;;;;12.68;2.80;;;13.30;99.90;;;;;;6204536;28;20352;-86
2022/11/18 11:26:43;;;;;;;8.57;2.85;;;13.50;99.90;;;;;;6200190;28;20137;-85
2022/11/18 11:30:09;;;;;;;6.95;2.70;;;13.50;99.90;;;;;;6205918;28;20061;-85
2022/11/18 11:36:48;;;;;;;10.63;3.25;;;13.70;99.90;;;;;;6245046;22;20109;-86
2022/11/18 11:52:23;;;;;;;12.93;3.50;;;13.50;99.90;;;;;;6149110;29;20235;-88
2022/11/18 12:11:43;;;;;;;3.23;1.50;;;13.30;99.90;;;;;;6133456;28;20047;-85
2022/11/18 12:14:57;;;;;;;8.52;1.85;;;13.20;99.90;;;;;;6165357;28;20241;-85
2022/11/18 12:18:49;;;;;;;7.80;2.13;;;13.20;99.90;;;;;;6177562;28;20047;-87
2022/11/18 12:22:07;;;;;;;8.98;1.90;;;13.30;99.90;;;;;;6223814;28;20048;-86
2022/11/18 12:26:11;;;;;;;4.15;1.73;;;13.50;99.90;;;;;;6199231;28;20058;-86
2022/11/18 12:37:57;;;;;;;9.48;1.77;;;13.60;99.90;;;;;;6178449;28;20047;-86
2022/11/18 12:43:45;;;;;;;1.27;1.00;;;13.40;99.90;;;;;;6178352;28;20051;-86
2022/11/18 12:44:31;;;;;;;2.65;0.95;;;13.30;99.90;;;;;;6181378;28;20050;-85
2022/11/18 12:51:47;;;;;;;1.70;1.20;;;13.20;99.90;;;;;;6173422;28;20417;-86
2022/11/18 12:54:51;;;;;;;4.30;1.80;;;13.30;99.90;;;;;;6175728;28;20065;-85
2022/11/18 13:02:25;;;;;;;1.75;0.57;;;13.70;99.90;;;;;;6148505;28;20075;-85
2022/11/18 13:05:34;;;;;;;11.95;2.25;;;13.80;99.90;;;;;;6151170;28;20501;-85
2022/11/18 13:08:57;;;;;;;3.53;1.20;;;13.80;99.90;;;;;;6149492;28;20086;-85
2022/11/18 13:12:03;;;;;;;2.75;0.45;;;13.70;99.90;;;;;;6153878;28;20625;-85
2022/11/18 13:18:33;;;;;;;53.72;31.92;;;13.60;99.90;;;;;;6169010;28;20529;-85
2022/11/18 13:24:54;;;;;;;207.25;82.82;;;13.90;99.90;;;;;;6187432;28;20046;-86
2022/11/18 13:28:07;;;;;;;7.68;4.43;;;14.30;99.90;;;;;;6197704;28;20046;-85
2022/11/18 13:31:17;;;;;;;8.63;3.55;;;14.60;99.90;;;;;;6198408;28;20161;-85
2022/11/18 13:34:22;;;;;;;2.60;1.58;;;15.00;99.90;;;;;;6197063;28;20564;-85
2022/11/18 13:37:28;;;;;;;2.95;0.77;;;15.20;99.90;;;;;;6198232;28;20050;-85
2022/11/18 13:40:37;;;;;;;0.80;0.40;;;15.40;99.90;;;;;;6198152;28;20496;-85
2022/11/18 13:43:41;;;;;;;4.05;1.13;;;15.40;99.90;;;;;;6200652;28;20058;-84
2022/11/18 13:46:43;;;;;;;5.03;3.00;;;15.20;99.90;;;;;;6200361;28;20050;-86
2022/11/18 13:49:56;;;;;;;6.47;2.42;;;15.10;99.90;;;;;;6197134;28;20181;-86
2022/11/18 13:53:07;;;;;;;7.20;4.00;;;14.90;99.90;;;;;;6199298;28;20057;-85
2022/11/18 13:56:17;;;;;;;4.13;1.50;;;14.90;99.90;;;;;;6199013;28;20419;-85
2022/11/18 13:59:28;;;;;;;5.93;1.80;;;14.90;99.90;;;;;;6200330;28;20050;-85
2022/11/18 14:02:30;;;;;;;8.40;0.95;;;15.00;99.90;;;;;;6201813;28;20056;-84
2022/11/18 14:05:32;;;;;;;12.27;2.78;;;15.30;99.90;;;;;;6215247;23;20107;-83
2022/11/18 14:08:36;;;;;;;2.70;0.57;;;15.40;99.90;;;;;;6191605;28;20447;-83
2022/11/18 14:11:40;;;;;;;8.15;1.10;;;15.40;99.90;;;;;;6176217;28;20046;-85
2022/11/18 14:14:44;;;;;;;4.13;0.85;;;15.40;99.90;;;;;;6181316;28;20051;-87
2022/11/18 14:17:54;;;;;;;4.43;0.65;;;15.30;99.90;;;;;;6179212;28;20066;-86
2022/11/18 14:20:56;;;;;;;4.43;0.82;;;15.10;99.90;;;;;;6191876;28;20053;-86
2022/11/18 14:23:59;;;;;;;2.33;0.57;;;15.00;99.90;;;;;;6205050;28;20054;-84
2022/11/18 14:27:28;;;;;;;2.28;0.88;;;14.80;99.90;;;;;;6205289;28;20050;-86
2022/11/18 14:30:36;;;;;;;3.72;0.70;;;14.70;99.90;;;;;;6204570;28;20132;-84
2022/11/18 14:33:39;;;;;;;8.40;0.77;;;14.60;99.90;;;;;;6203146;28;20546;-86
2022/11/18 14:36:40;;;;;;;6.70;1.35;;;14.40;99.90;;;;;;6185153;28;20051;-85
2022/11/18 14:39:54;;;;;;;4.20;1.02;;;14.20;99.90;;;;;;6180610;28;20058;-87
2022/11/18 14:42:56;;;;;;;6.00;1.00;;;14.10;99.90;;;;;;6182260;28;20047;-85
2022/11/18 14:46:01;;;;;;;3.83;0.93;;;14.10;99.90;;;;;;6196561;28;20048;-86
2022/11/18 14:49:05;;;;;;;5.28;0.90;;;13.90;99.90;;;;;;6206829;28;20406;-85
2022/11/18 14:52:10;;;;;;;4.60;1.17;;;13.80;99.90;;;;;;6204893;28;20419;-85
2022/11/18 14:55:11;;;;;;;3.63;1.00;;;13.70;99.90;;;;;;6187244;28;20059;-85
2022/11/18 14:58:14;;;;;;;11.50;7.05;;;13.70;99.90;;;;;;6177660;28;20515;-84
2022/11/18 15:01:17;;;;;;;3.60;1.77;;;13.60;99.90;;;;;;6193493;28;20039;-87
2022/11/18 15:04:20;;;;;;;3.50;0.80;;;13.50;99.90;;;;;;6202557;28;20046;-85
2022/11/18 15:07:22;;;;;;;1.75;0.70;;;13.50;99.90;;;;;;6202281;28;20057;-84
2022/11/18 15:10:23;;;;;;;5.57;0.70;;;13.50;99.90;;;;;;6179495;28;20065;-84
2022/11/18 15:13:25;;;;;;;5.80;1.45;;;13.50;99.90;;;;;;6180108;28;20047;-86
2022/11/18 15:16:30;;;;;;;1.98;0.85;;;13.50;99.90;;;;;;6178719;28;20043;-86
2022/11/18 15:19:31;;;;;;;4.10;0.98;;;13.50;99.90;;;;;;6179243;28;20053;-84
2022/11/18 15:22:34;;;;;;;4.65;0.98;;;13.50;99.90;;;;;;6227920;28;20057;-84
2022/11/18 15:25:35;;;;;;;3.40;1.23;;;13.60;99.90;;;;;;6227101;28;20053;-86
2022/11/18 15:28:37;;;;;;;3.33;1.90;;;13.60;99.90;;;;;;6229870;28;20503;-84
2022/11/18 15:31:40;;;;;;;6.22;2.97;;;13.50;99.90;;;;;;6230219;28;20050;-83
2022/11/18 15:34:42;;;;;;;11.02;1.45;;;13.50;99.90;;;;;;6223141;28;20046;-85
2022/11/18 15:37:58;;;;;;;5.90;1.55;;;13.50;99.90;;;;;;6185736;28;20059;-87
2022/11/18 15:40:59;;;;;;;6.75;1.67;;;13.50;99.90;;;;;;6188841;28;20118;-85
2022/11/18 15:44:02;;;;;;;3.78;1.30;;;13.60;99.90;;;;;;6178773;28;20049;-85
2022/11/18 15:47:05;;;;;;;3.55;1.30;;;13.50;99.90;;;;;;6178326;28;20050;-84
2022/11/18 15:50:07;;;;;;;7.53;1.85;;;13.50;99.90;;;;;;6202836;28;20047;-84
2022/11/18 15:53:09;;;;;;;8.70;1.70;;;13.50;99.90;;;;;;6180525;28;20043;-86
2022/11/18 15:56:15;;;;;;;3.88;1.20;;;13.40;99.90;;;;;;6155944;28;20049;-84
2022/11/18 15:59:17;;;;;;;8.52;1.33;;;13.30;99.90;;;;;;6154146;29;20051;-85
2022/11/18 16:02:20;;;;;;;8.93;1.05;;;13.40;99.90;;;;;;6153926;28;20094;-84
2022/11/18 16:05:22;;;;;;;4.18;0.80;;;13.40;99.90;;;;;;6153715;28;20051;-85
2022/11/18 16:08:24;;;;;;;5.30;0.93;;;13.30;99.90;;;;;;6152951;28;20055;-84
2022/11/18 16:15:42;;;;;;;5.45;1.90;;;13.30;99.90;;;;;;6178024;28;20059;-85
2022/11/18 16:18:08;;;;;;;7.72;0.95;;;13.20;99.90;;;;;;6173011;28;20073;-84
2022/11/18 16:21:10;;;;;;;9.23;1.85;;;13.20;99.90;;;;;;6190202;28;20084;-84
2022/11/18 16:24:14;;;;;;;3.28;1.05;;;13.10;99.90;;;;;;6196337;28;20063;-85
2022/11/18 16:27:16;;;;;;;3.50;1.08;;;13.00;99.90;;;;;;6180992;28;20053;-82
2022/11/18 16:33:38;;;;;;;4.15;2.20;;;12.80;99.90;;;;;;6177962;28;20066;-85
2022/11/18 16:36:42;;;;;;;8.35;1.50;;;12.80;99.90;;;;;;6170305;28;20513;-85
2022/11/18 16:39:44;;;;;;;8.48;1.50;;;12.80;99.90;;;;;;6153337;28;20059;-85
2022/11/18 16:42:48;;;;;;;3.22;1.33;;;12.80;99.90;;;;;;6154985;29;20520;-86
2022/11/18 16:45:51;;;;;;;5.53;1.95;;;12.70;99.90;;;;;;6155908;28;20051;-85
2022/11/18 16:48:56;;;;;;;4.60;1.17;;;12.80;99.90;;;;;;6193641;28;20050;-85
2022/11/18 16:51:58;;;;;;;3.90;1.20;;;12.70;99.90;;;;;;6199499;28;20057;-86
2022/11/18 16:54:59;;;;;;;5.03;1.52;;;12.70;99.90;;;;;;6179723;28;20050;-83
2022/11/18 16:58:01;;;;;;;1.70;1.20;;;12.70;99.90;;;;;;6177766;28;20047;-86
2022/11/18 17:01:09;;;;;;;3.90;1.10;;;12.60;99.90;;;;;;6178212;28;20156;-85
2022/11/18 17:04:13;;;;;;;3.95;1.13;;;12.50;99.90;;;;;;6179251;28;20047;-85
2022/11/18 17:07:14;;;;;;;7.05;1.70;;;12.50;99.90;;;;;;6178705;28;20050;-86
2022/11/18 17:10:19;;;;;;;2.78;1.33;;;12.50;99.90;;;;;;6177559;28;20130;-85
2022/11/18 17:13:21;;;;;;;4.97;1.50;;;12.50;99.90;;;;;;6182025;28;20073;-86
2022/11/18 17:16:24;;;;;;;4.68;1.60;;;12.50;99.90;;;;;;6181602;28;20056;-88
2022/11/18 17:19:27;;;;;;;5.30;1.50;;;12.40;99.90;;;;;;6177723;28;20093;-86
2022/11/18 17:22:28;;;;;;;4.82;1.70;;;12.40;99.90;;;;;;6192871;28;20047;-86
2022/11/18 17:25:30;;;;;;;11.57;1.42;;;12.30;99.90;;;;;;6201729;28;20046;-84
2022/11/18 17:28:33;;;;;;;6.82;1.40;;;12.30;99.90;;;;;;6201606;28;20050;-85
2022/11/18 17:31:35;;;;;;;9.73;1.38;;;12.40;99.90;;;;;;6201402;28;20054;-86
2022/11/18 17:34:38;;;;;;;6.50;0.80;;;12.50;99.90;;;;;;6202778;28;20050;-85
2022/11/18 17:37:40;;;;;;;5.35;1.55;;;12.50;99.90;;;;;;6192530;28;20050;-85
2022/11/18 17:40:42;;;;;;;2.50;1.25;;;12.50;99.90;;;;;;6192476;28;20142;-86
2022/11/18 17:43:43;;;;;;;5.75;1.60;;;12.50;99.90;;;;;;6178771;28;20043;-86
2022/11/18 17:46:46;;;;;;;5.43;1.48;;;12.40;99.90;;;;;;6177919;28;20046;-85
2022/11/18 17:49:50;;;;;;;5.60;1.90;;;12.50;99.90;;;;;;6176326;28;20053;-84
2022/11/18 17:52:51;;;;;;;7.40;1.65;;;12.50;99.90;;;;;;6178238;28;20139;-83
2022/11/18 17:55:53;;;;;;;7.70;1.58;;;12.60;99.90;;;;;;6179094;28;20051;-84
2022/11/18 17:58:55;;;;;;;6.53;1.63;;;12.60;99.90;;;;;;6179219;28;20054;-85
2022/11/18 18:01:57;;;;;;;7.35;1.52;;;12.60;99.90;;;;;;6179455;28;20043;-84
2022/11/18 18:05:00;;;;;;;3.28;1.00;;;12.60;99.90;;;;;;6179927;28;20057;-85
2022/11/18 18:08:03;;;;;;;5.40;1.63;;;12.60;99.90;;;;;;6179902;28;20057;-84
2022/11/18 18:11:07;;;;;;;7.75;1.25;;;12.50;99.90;;;;;;6179895;28;20054;-86
2022/11/18 18:14:12;;;;;;;3.00;0.88;;;12.50;99.90;;;;;;6179671;28;20066;-85
2022/11/18 18:17:14;;;;;;;3.67;1.58;;;12.50;99.90;;;;;;6178325;28;20055;-85
2022/11/18 18:20:18;;;;;;;10.10;1.88;;;12.50;99.90;;;;;;6186494;28;20176;-86